Time;durP1;ratioP1;P1;durP2;ratioP2;P2;SDS_P1;SDS_P2;PMS_P1;PMS_P2;Temp;Humidity;BMP_temperature;BMP_pressure;BME280_temperature;BME280_humidity;BME280_pressure;Samples;Min_cycle;Max_cycle;Signal;HPM_P1;HPM_P2
2024/03/27 00:02:05;;;;;;;33.97;32.35;;;9.00;99.90;;;;;;5050975;28;20405;-74
2024/03/27 00:04:31;;;;;;;33.20;31.65;;;8.90;99.90;;;;;;5051563;28;20037;-74
2024/03/27 00:06:57;;;;;;;35.22;33.58;;;8.90;99.90;;;;;;5051523;28;20033;-74
2024/03/27 00:09:23;;;;;;;34.63;33.00;;;8.90;99.90;;;;;;5051747;28;20045;-74
2024/03/27 00:11:50;;;;;;;34.28;32.65;;;8.90;99.90;;;;;;5052341;28;20033;-74
2024/03/27 00:14:16;;;;;;;35.25;33.60;;;8.80;99.90;;;;;;5055740;28;20041;-74
2024/03/27 00:16:44;;;;;;;35.10;33.45;;;8.90;99.90;;;;;;5054863;28;20033;-74
2024/03/27 00:19:11;;;;;;;33.47;31.92;;;8.80;99.90;;;;;;5054207;28;20045;-74
2024/03/27 00:21:37;;;;;;;35.92;34.08;;;8.80;99.90;;;;;;5055033;28;20056;-74
2024/03/27 00:24:06;;;;;;;35.63;33.97;;;8.80;99.90;;;;;;5055580;28;20036;-74
2024/03/27 00:26:32;;;;;;;39.13;37.28;;;8.80;99.90;;;;;;5055018;28;20029;-73
2024/03/27 00:28:58;;;;;;;36.15;34.42;;;8.80;99.90;;;;;;5055593;28;20044;-74
2024/03/27 00:31:25;;;;;;;36.30;34.58;;;8.80;99.90;;;;;;5054583;28;20052;-74
2024/03/27 00:33:52;;;;;;;37.47;35.70;;;8.80;99.90;;;;;;5055196;28;20037;-75
2024/03/27 00:36:18;;;;;;;38.65;36.83;;;8.80;99.90;;;;;;5054989;28;20052;-74
2024/03/27 00:38:44;;;;;;;36.67;34.83;;;8.80;99.90;;;;;;5055144;28;20048;-74
2024/03/27 00:41:10;;;;;;;35.95;34.28;;;8.70;99.90;;;;;;5036853;28;20041;-74
2024/03/27 00:43:37;;;;;;;36.40;34.67;;;8.70;99.90;;;;;;5035164;28;20505;-74
2024/03/27 00:46:06;;;;;;;36.70;34.97;;;8.70;99.90;;;;;;5041688;28;20477;-74
2024/03/27 00:48:32;;;;;;;35.88;34.17;;;8.70;99.90;;;;;;5054968;28;20401;-74
2024/03/27 00:50:59;;;;;;;36.22;34.53;;;8.60;99.90;;;;;;5053381;28;20041;-74
2024/03/27 00:53:25;;;;;;;39.53;37.67;;;8.60;99.90;;;;;;5055051;28;20033;-74
2024/03/27 00:56:01;;;;;;;38.72;36.92;;;8.60;99.90;;;;;;5054524;28;20422;-73
2024/03/27 00:58:28;;;;;;;34.85;33.20;;;8.50;99.90;;;;;;5055094;28;20029;-74
2024/03/27 01:00:54;;;;;;;35.78;34.08;;;8.50;99.90;;;;;;5054077;28;20041;-74
2024/03/27 01:03:20;;;;;;;36.17;34.47;;;8.40;99.90;;;;;;5054885;28;20393;-74
2024/03/27 01:05:46;;;;;;;34.35;32.72;;;8.40;99.90;;;;;;5054359;28;20029;-74
2024/03/27 01:08:12;;;;;;;35.08;33.42;;;8.30;99.90;;;;;;5054805;28;20037;-74
2024/03/27 01:10:39;;;;;;;35.38;33.72;;;8.30;99.90;;;;;;5054426;28;20040;-75
2024/03/27 01:13:09;;;;;;;36.45;34.67;;;8.30;99.90;;;;;;5054664;28;20029;-73
2024/03/27 01:15:35;;;;;;;28.50;27.17;;;8.10;99.90;;;;;;5053097;28;20494;-69
2024/03/27 01:18:03;;;;;;;27.80;26.52;;;8.00;99.90;;;;;;5054543;28;20025;-74
2024/03/27 01:20:30;;;;;;;26.02;24.83;;;8.10;99.90;;;;;;5054064;28;20052;-74
2024/03/27 01:22:58;;;;;;;27.52;26.23;;;8.20;99.90;;;;;;5053543;28;20394;-73
2024/03/27 01:25:25;;;;;;;28.23;26.90;;;8.10;99.90;;;;;;5053882;28;20033;-74
2024/03/27 01:27:51;;;;;;;31.13;29.67;;;8.10;99.90;;;;;;5054456;28;20033;-73
2024/03/27 01:30:17;;;;;;;31.27;29.83;;;8.20;99.90;;;;;;5053198;28;20036;-73
2024/03/27 01:32:45;;;;;;;35.55;33.88;;;8.20;99.90;;;;;;5054349;28;20036;-73
2024/03/27 01:35:11;;;;;;;32.88;31.35;;;8.30;99.90;;;;;;5053584;28;20036;-74
2024/03/27 01:37:37;;;;;;;34.58;32.95;;;8.30;99.90;;;;;;5045778;28;20032;-73
2024/03/27 01:40:04;;;;;;;38.33;36.53;;;8.40;99.90;;;;;;5034163;28;20029;-74
2024/03/27 01:42:34;;;;;;;35.95;34.28;;;8.30;99.90;;;;;;5034299;28;20049;-74
2024/03/27 01:45:00;;;;;;;33.60;32.03;;;8.30;99.90;;;;;;5034200;28;20505;-73
2024/03/27 01:47:26;;;;;;;34.97;33.33;;;8.30;99.90;;;;;;5051952;28;20033;-73
2024/03/27 01:49:53;;;;;;;37.17;35.42;;;8.30;99.90;;;;;;5053974;28;20054;-73
2024/03/27 01:52:19;;;;;;;36.72;35.00;;;8.40;99.90;;;;;;5053419;28;20504;-74
2024/03/27 01:54:46;;;;;;;36.15;34.45;;;8.30;99.90;;;;;;5052750;28;20029;-74
2024/03/27 01:57:12;;;;;;;35.08;33.42;;;8.10;99.90;;;;;;5053550;28;20092;-73
2024/03/27 01:59:38;;;;;;;38.22;36.42;;;8.10;99.90;;;;;;5052489;28;20025;-74
2024/03/27 02:02:04;;;;;;;40.15;38.28;;;8.10;99.90;;;;;;5052929;28;20029;-74
2024/03/27 02:04:30;;;;;;;39.85;38.00;;;8.10;99.90;;;;;;5053644;28;20044;-74
2024/03/27 02:06:56;;;;;;;40.45;38.55;;;8.20;99.90;;;;;;5053217;28;20029;-74
2024/03/27 02:09:22;;;;;;;39.72;37.88;;;8.10;99.90;;;;;;5052342;28;20036;-74
2024/03/27 02:11:48;;;;;;;40.58;38.67;;;8.10;99.90;;;;;;5052003;28;20037;-73
2024/03/27 02:14:15;;;;;;;41.08;39.15;;;8.20;99.90;;;;;;5051935;28;20056;-73
2024/03/27 02:16:41;;;;;;;44.40;42.30;;;8.10;99.90;;;;;;5052629;28;20405;-73
2024/03/27 02:19:07;;;;;;;44.85;42.75;;;8.10;99.90;;;;;;5053555;28;20384;-74
2024/03/27 02:21:35;;;;;;;45.92;43.75;;;8.00;99.90;;;;;;5052901;28;20049;-73
2024/03/27 02:24:16;;;;;;;46.95;44.72;;;8.00;99.90;;;;;;5051910;28;20037;-74
2024/03/27 02:26:42;;;;;;;46.80;44.60;;;8.00;99.90;;;;;;5053031;28;20036;-75
2024/03/27 02:29:08;;;;;;;46.45;44.25;;;8.00;99.90;;;;;;5051773;28;20032;-74
2024/03/27 02:31:34;;;;;;;45.92;43.75;;;8.00;99.90;;;;;;5052332;28;20501;-75
2024/03/27 02:34:00;;;;;;;44.85;42.72;;;8.00;99.90;;;;;;5052806;28;20032;-74
2024/03/27 02:36:26;;;;;;;47.05;44.85;;;8.00;99.90;;;;;;5052416;28;20028;-75
2024/03/27 02:38:52;;;;;;;49.22;46.90;;;8.00;99.90;;;;;;5034317;28;20040;-75
2024/03/27 02:41:19;;;;;;;47.50;45.25;;;8.10;99.90;;;;;;5032546;28;20029;-75
2024/03/27 02:43:45;;;;;;;45.20;43.05;;;8.00;99.90;;;;;;5033503;28;20056;-74
2024/03/27 02:46:11;;;;;;;46.53;44.05;;;8.00;99.90;;;;;;5040382;28;20033;-74
2024/03/27 02:48:37;;;;;;;44.95;42.80;;;8.00;99.90;;;;;;5052921;28;20033;-75
2024/03/27 02:51:04;;;;;;;47.45;45.20;;;8.10;99.90;;;;;;5052458;28;20029;-74
2024/03/27 02:53:30;;;;;;;44.83;42.70;;;8.00;99.90;;;;;;5052746;28;20037;-74
2024/03/27 02:55:56;;;;;;;47.25;45.00;;;8.00;99.90;;;;;;5052249;28;20056;-74
2024/03/27 02:58:22;;;;;;;44.70;42.60;;;8.00;99.90;;;;;;5052445;28;20025;-75
2024/03/27 03:00:49;;;;;;;44.60;42.50;;;7.90;99.90;;;;;;5049649;28;20033;-74
2024/03/27 03:03:15;;;;;;;45.00;42.90;;;8.00;99.90;;;;;;5030103;28;20037;-75
2024/03/27 03:05:41;;;;;;;45.58;43.42;;;8.00;99.90;;;;;;5028166;28;20049;-75
2024/03/27 03:08:08;;;;;;;47.67;45.40;;;7.90;99.90;;;;;;5030979;28;20025;-74
2024/03/27 03:10:34;;;;;;;50.17;47.78;;;7.90;99.90;;;;;;5033847;28;20035;-75
2024/03/27 03:13:00;;;;;;;48.45;46.15;;;7.90;99.90;;;;;;5049183;28;20369;-75
2024/03/27 03:15:26;;;;;;;46.70;44.50;;;7.90;99.90;;;;;;5034269;28;20402;-75
2024/03/27 03:17:52;;;;;;;45.38;43.17;;;7.90;99.90;;;;;;5050974;28;20025;-75
2024/03/27 03:20:18;;;;;;;46.17;43.97;;;7.80;99.90;;;;;;5050399;28;20025;-74
2024/03/27 03:22:44;;;;;;;45.20;43.05;;;7.70;99.90;;;;;;5042586;28;20045;-75
2024/03/27 03:25:11;;;;;;;40.80;38.88;;;7.80;99.90;;;;;;5030141;28;20052;-74
2024/03/27 03:27:37;;;;;;;45.95;43.80;;;7.70;99.90;;;;;;5010964;28;20658;-74
2024/03/27 03:30:04;;;;;;;46.58;44.38;;;7.70;99.90;;;;;;5010727;28;20034;-74
2024/03/27 03:32:30;;;;;;;43.20;41.20;;;7.70;99.90;;;;;;5048858;28;20470;-75
2024/03/27 03:34:56;;;;;;;48.10;45.83;;;7.70;99.90;;;;;;5050432;28;20032;-75
2024/03/27 03:37:22;;;;;;;44.83;42.70;;;7.70;99.90;;;;;;5033603;28;20041;-75
2024/03/27 03:39:48;;;;;;;48.22;45.95;;;7.70;99.90;;;;;;5019899;28;20021;-74
2024/03/27 03:42:15;;;;;;;46.88;44.67;;;7.70;99.90;;;;;;5031536;28;20026;-74
2024/03/27 03:44:41;;;;;;;47.97;45.70;;;7.70;99.90;;;;;;5032083;28;20048;-74
2024/03/27 03:47:07;;;;;;;46.13;43.95;;;7.70;99.90;;;;;;5051143;28;20041;-74
2024/03/27 03:49:33;;;;;;;44.42;42.33;;;7.70;99.90;;;;;;5056322;28;20040;-75
2024/03/27 03:51:59;;;;;;;48.90;46.60;;;7.70;99.90;;;;;;5055836;28;20469;-74
2024/03/27 03:54:25;;;;;;;47.85;45.58;;;7.60;99.90;;;;;;5056177;28;20029;-74
2024/03/27 03:56:51;;;;;;;44.90;42.80;;;7.70;99.90;;;;;;5055365;28;20362;-75
2024/03/27 03:59:17;;;;;;;43.00;40.97;;;7.60;99.90;;;;;;5056218;28;20033;-74
2024/03/27 04:01:43;;;;;;;42.75;40.75;;;7.60;99.90;;;;;;5055275;28;20397;-75
2024/03/27 04:04:11;;;;;;;42.42;40.42;;;7.60;99.90;;;;;;5055850;28;20041;-75
2024/03/27 04:06:37;;;;;;;44.17;42.10;;;7.50;99.90;;;;;;5055604;28;20654;-74
2024/03/27 04:09:03;;;;;;;40.33;38.42;;;7.50;99.90;;;;;;5054836;28;20029;-75
2024/03/27 04:11:29;;;;;;;44.25;42.17;;;7.50;99.90;;;;;;5055190;28;20381;-74
2024/03/27 04:13:56;;;;;;;46.45;44.28;;;7.50;99.90;;;;;;5055889;28;20040;-74
2024/03/27 04:16:22;;;;;;;46.15;43.97;;;7.50;99.90;;;;;;5055145;28;20037;-74
2024/03/27 04:18:48;;;;;;;47.88;45.60;;;7.50;99.90;;;;;;5055874;28;20036;-74
2024/03/27 04:21:14;;;;;;;49.22;46.88;;;7.50;99.90;;;;;;5055138;28;20049;-74
2024/03/27 04:23:41;;;;;;;48.05;45.78;;;7.50;99.90;;;;;;5055124;28;20500;-74
2024/03/27 04:26:07;;;;;;;52.80;50.15;;;7.40;99.90;;;;;;5054588;28;20075;-74
2024/03/27 04:28:34;;;;;;;50.17;47.83;;;7.40;99.90;;;;;;5055606;28;20033;-74
2024/03/27 04:31:03;;;;;;;54.30;51.72;;;7.40;99.90;;;;;;5054729;28;20405;-74
2024/03/27 04:33:30;;;;;;;39.72;37.88;;;7.30;99.90;;;;;;5055836;28;20040;-74
2024/03/27 04:35:56;;;;;;;38.90;37.10;;;7.20;99.90;;;;;;5054679;28;20401;-74
2024/03/27 04:38:22;;;;;;;39.60;37.75;;;7.30;99.90;;;;;;5055632;28;20040;-74
2024/03/27 04:40:48;;;;;;;40.70;38.80;;;7.30;99.90;;;;;;5039253;28;20393;-75
2024/03/27 04:43:14;;;;;;;38.53;36.72;;;7.30;99.90;;;;;;5035401;28;20036;-74
2024/03/27 04:45:40;;;;;;;43.50;41.45;;;7.30;99.90;;;;;;5038804;28;20037;-75
2024/03/27 04:48:06;;;;;;;105.43;100.07;;;7.20;99.90;;;;;;5055233;28;20045;-74
2024/03/27 04:50:33;;;;;;;51.30;48.88;;;7.20;99.90;;;;;;5054883;28;20017;-74
2024/03/27 04:52:59;;;;;;;39.15;37.30;;;7.20;99.90;;;;;;5055205;28;20044;-75
2024/03/27 04:55:25;;;;;;;43.10;41.10;;;7.30;99.90;;;;;;5054079;28;20025;-74
2024/03/27 04:57:51;;;;;;;46.42;44.25;;;7.30;99.90;;;;;;5054382;28;20053;-74
2024/03/27 05:00:18;;;;;;;57.75;55.00;;;7.30;99.90;;;;;;5053939;28;20473;-74
2024/03/27 05:02:44;;;;;;;51.47;48.92;;;7.30;99.90;;;;;;5055009;28;20453;-74
2024/03/27 05:05:10;;;;;;;116.22;108.43;;;7.20;99.90;;;;;;5054622;28;20040;-74
2024/03/27 05:07:36;;;;;;;49.55;47.20;;;7.20;99.90;;;;;;5035154;28;20061;-74
2024/03/27 05:10:02;;;;;;;56.47;53.78;;;7.20;99.90;;;;;;5035497;28;20048;-74
2024/03/27 05:12:29;;;;;;;51.97;49.53;;;7.20;99.90;;;;;;5053440;28;20021;-74
2024/03/27 05:14:55;;;;;;;60.08;57.22;;;7.20;99.90;;;;;;5054605;28;20037;-74
2024/03/27 05:17:21;;;;;;;49.70;47.35;;;7.20;99.90;;;;;;5053957;28;20183;-74
2024/03/27 05:19:49;;;;;;;52.47;50.00;;;7.20;99.90;;;;;;5054854;28;20032;-74
2024/03/27 05:22:15;;;;;;;51.83;49.28;;;7.20;99.90;;;;;;5053734;28;20131;-73
2024/03/27 05:24:42;;;;;;;42.85;40.85;;;7.20;99.90;;;;;;5054393;28;20063;-74
2024/03/27 05:27:08;;;;;;;53.75;51.20;;;7.10;99.90;;;;;;5054157;28;20033;-74
2024/03/27 05:29:35;;;;;;;45.58;43.42;;;7.10;99.90;;;;;;5054515;28;20052;-75
2024/03/27 05:32:01;;;;;;;39.03;37.20;;;7.20;99.90;;;;;;5053678;28;20037;-74
2024/03/27 05:34:27;;;;;;;41.42;39.47;;;7.10;99.90;;;;;;5054598;28;20033;-74
2024/03/27 05:36:53;;;;;;;41.78;39.80;;;7.10;99.90;;;;;;5045049;28;20044;-74
2024/03/27 05:39:19;;;;;;;37.97;36.20;;;7.00;99.90;;;;;;5034403;28;20385;-74
2024/03/27 05:41:46;;;;;;;41.55;39.58;;;7.00;99.90;;;;;;5034362;28;20025;-74
2024/03/27 05:44:12;;;;;;;42.60;40.60;;;7.00;99.90;;;;;;5034262;28;20045;-74
2024/03/27 05:46:39;;;;;;;39.28;37.42;;;7.00;99.90;;;;;;5033629;28;20712;-74
2024/03/27 05:49:05;;;;;;;44.90;42.80;;;7.00;99.90;;;;;;5032770;28;20049;-74
2024/03/27 05:51:33;;;;;;;44.97;42.85;;;6.90;99.90;;;;;;5033673;28;20022;-74
2024/03/27 05:53:59;;;;;;;38.13;36.33;;;6.80;99.90;;;;;;5034124;28;20450;-75
2024/03/27 05:56:25;;;;;;;39.53;37.67;;;6.90;99.90;;;;;;5033879;28;20026;-74
2024/03/27 05:58:51;;;;;;;43.75;41.67;;;6.90;99.90;;;;;;5034056;28;20044;-75
2024/03/27 06:01:18;;;;;;;38.53;36.73;;;6.90;99.90;;;;;;5031547;28;20493;-74
2024/03/27 06:03:48;;;;;;;38.72;36.90;;;6.90;99.90;;;;;;5033602;28;20044;-74
2024/03/27 06:06:14;;;;;;;39.47;37.63;;;6.80;99.90;;;;;;5033426;28;20408;-74
2024/03/27 06:08:42;;;;;;;39.20;37.35;;;6.80;99.90;;;;;;5033434;28;20041;-74
2024/03/27 06:11:08;;;;;;;40.47;38.58;;;6.90;99.90;;;;;;5033045;28;20022;-74
2024/03/27 06:13:34;;;;;;;38.78;36.95;;;6.80;99.90;;;;;;5033575;28;20096;-74
2024/03/27 06:16:00;;;;;;;39.53;37.70;;;6.80;99.90;;;;;;5033168;28;20034;-74
2024/03/27 06:18:26;;;;;;;47.30;45.07;;;6.90;99.90;;;;;;5033743;28;20033;-74
2024/03/27 06:20:53;;;;;;;41.38;39.42;;;6.90;99.90;;;;;;5032955;28;20026;-74
2024/03/27 06:23:19;;;;;;;45.22;43.08;;;6.90;99.90;;;;;;5033320;28;20033;-74
2024/03/27 06:26:01;;;;;;;41.60;39.65;;;6.80;99.90;;;;;;5032896;28;20588;-74
2024/03/27 06:28:28;;;;;;;44.80;42.70;;;6.80;99.90;;;;;;5033192;28;20030;-74
2024/03/27 06:31:01;;;;;;;50.30;47.92;;;6.80;99.90;;;;;;5031563;28;20047;-74
2024/03/27 06:33:27;;;;;;;49.75;47.38;;;6.70;99.90;;;;;;5033286;28;20025;-74
2024/03/27 06:35:53;;;;;;;46.83;44.63;;;6.70;99.90;;;;;;5032626;28;20033;-75
2024/03/27 06:38:20;;;;;;;49.97;47.60;;;6.80;99.90;;;;;;5053386;28;20033;-75
2024/03/27 06:40:46;;;;;;;56.63;53.97;;;6.90;99.90;;;;;;5052542;28;20029;-74
2024/03/27 06:43:13;;;;;;;66.30;63.17;;;7.30;99.90;;;;;;5052862;28;20410;-72
2024/03/27 06:45:42;;;;;;;57.80;55.08;;;7.40;99.90;;;;;;5051431;28;20041;-75
2024/03/27 06:48:09;;;;;;;52.15;49.70;;;7.70;99.90;;;;;;5052781;28;20036;-74
2024/03/27 06:50:35;;;;;;;58.22;55.45;;;7.90;99.90;;;;;;5052027;28;20040;-74
2024/03/27 06:53:01;;;;;;;53.00;50.50;;;8.10;99.90;;;;;;5052749;28;20373;-74
2024/03/27 06:55:27;;;;;;;50.95;48.55;;;8.30;99.90;;;;;;5049244;28;20385;-74
2024/03/27 06:57:53;;;;;;;63.55;60.50;;;8.50;99.90;;;;;;5032745;28;20036;-74
2024/03/27 07:00:20;;;;;;;62.60;59.63;;;8.70;99.90;;;;;;5032826;28;20382;-74
2024/03/27 07:02:46;;;;;;;42.65;40.65;;;8.90;99.90;;;;;;5052652;28;20017;-73
2024/03/27 07:05:13;;;;;;;45.55;43.38;;;9.10;99.90;;;;;;5051720;28;20041;-73
2024/03/27 07:07:40;;;;;;;43.83;41.75;;;9.30;99.90;;;;;;5052698;28;20033;-74
2024/03/27 07:10:08;;;;;;;50.67;48.10;;;9.40;99.90;;;;;;5051675;28;20481;-73
2024/03/27 07:12:34;;;;;;;49.15;46.78;;;9.50;99.90;;;;;;5050872;28;20044;-73
2024/03/27 07:15:01;;;;;;;53.22;50.65;;;9.60;99.90;;;;;;5052285;28;20033;-73
2024/03/27 07:17:27;;;;;;;48.38;46.10;;;9.70;99.90;;;;;;5051568;28;20048;-73
2024/03/27 07:19:53;;;;;;;41.97;40.03;;;9.70;99.90;;;;;;5051959;28;20032;-73
2024/03/27 07:22:19;;;;;;;56.42;53.65;;;9.80;99.90;;;;;;5051388;28;20044;-74
2024/03/27 07:24:49;;;;;;;40.75;38.85;;;10.00;99.90;;;;;;5052199;28;20052;-73
2024/03/27 07:27:15;;;;;;;42.35;40.33;;;10.00;99.90;;;;;;5051964;28;20039;-73
2024/03/27 07:29:41;;;;;;;55.25;52.63;;;10.00;99.90;;;;;;5052149;28;20037;-73
2024/03/27 07:32:07;;;;;;;59.10;56.25;;;10.10;99.90;;;;;;5051188;28;20041;-73
2024/03/27 07:34:33;;;;;;;43.15;41.10;;;10.30;99.90;;;;;;5051591;28;20037;-73
2024/03/27 07:36:59;;;;;;;41.40;39.45;;;10.40;99.90;;;;;;5051438;28;20033;-74
2024/03/27 07:39:25;;;;;;;60.38;57.50;;;10.50;99.90;;;;;;5052002;28;20394;-73
2024/03/27 07:41:51;;;;;;;54.13;51.58;;;10.70;99.90;;;;;;5051701;28;20037;-73
2024/03/27 07:44:18;;;;;;;65.30;62.20;;;10.60;99.90;;;;;;5051723;28;20039;-73
2024/03/27 07:46:44;;;;;;;38.50;36.70;;;10.70;99.90;;;;;;5051258;28;20029;-73
2024/03/27 07:49:10;;;;;;;112.53;107.07;;;10.80;99.90;;;;;;5051642;28;20029;-73
2024/03/27 07:51:36;;;;;;;155.57;148.02;;;10.80;99.90;;;;;;5051406;28;20029;-73
2024/03/27 07:54:02;;;;;;;124.25;118.20;;;10.90;99.90;;;;;;5051921;28;20047;-73
2024/03/27 07:56:30;;;;;;;116.78;111.13;;;11.00;99.90;;;;;;5055414;28;20500;-73
2024/03/27 07:58:56;;;;;;;91.18;86.78;;;11.20;99.90;;;;;;5032012;28;20021;-73
2024/03/27 08:01:22;;;;;;;56.03;53.38;;;11.30;99.90;;;;;;5038964;28;20037;-72
2024/03/27 08:03:48;;;;;;;69.32;66.03;;;11.40;99.90;;;;;;5051544;28;20380;-73
2024/03/27 08:06:14;;;;;;;61.67;58.72;;;11.30;99.90;;;;;;5051154;28;20052;-73
2024/03/27 08:08:41;;;;;;;44.95;42.75;;;11.20;99.90;;;;;;5051738;28;20025;-73
2024/03/27 08:11:09;;;;;;;39.03;37.20;;;11.10;99.90;;;;;;5051294;28;20033;-72
2024/03/27 08:13:35;;;;;;;38.75;36.92;;;10.90;99.90;;;;;;5051049;28;20402;-73
2024/03/27 08:16:02;;;;;;;36.40;34.45;;;11.00;99.90;;;;;;5050735;28;20029;-73
2024/03/27 08:18:39;;;;;;;35.05;33.38;;;11.10;99.90;;;;;;5051716;28;20029;-73
2024/03/27 08:21:05;;;;;;;62.78;59.78;;;11.00;99.90;;;;;;5050011;28;20033;-72
2024/03/27 08:23:31;;;;;;;75.70;72.13;;;11.00;99.90;;;;;;5051599;28;20037;-73
2024/03/27 08:25:57;;;;;;;73.10;69.63;;;10.90;99.90;;;;;;5050925;28;20393;-72
2024/03/27 08:28:23;;;;;;;45.08;42.95;;;10.80;99.90;;;;;;5050580;28;20025;-73
2024/03/27 08:30:49;;;;;;;36.80;35.08;;;10.70;99.90;;;;;;5050444;28;20044;-73
2024/03/27 08:33:16;;;;;;;34.25;32.65;;;10.70;99.90;;;;;;5052908;28;20489;-73
2024/03/27 08:35:42;;;;;;;33.47;31.83;;;10.70;99.90;;;;;;5055115;28;20071;-73
2024/03/27 08:38:08;;;;;;;27.83;26.52;;;10.60;99.90;;;;;;5054951;28;20486;-73
2024/03/27 08:40:35;;;;;;;27.65;26.35;;;10.70;99.90;;;;;;5053577;28;20028;-73
2024/03/27 08:43:02;;;;;;;28.73;27.35;;;10.80;99.90;;;;;;5055151;28;20031;-73
2024/03/27 08:45:28;;;;;;;27.65;26.35;;;10.90;99.90;;;;;;5052411;28;20040;-72
2024/03/27 08:47:54;;;;;;;28.83;27.48;;;10.90;99.90;;;;;;5055237;28;20032;-72
2024/03/27 08:50:20;;;;;;;34.63;32.88;;;11.10;99.90;;;;;;5054446;28;20025;-73
2024/03/27 08:52:47;;;;;;;32.70;30.50;;;11.20;99.90;;;;;;5054938;28;20048;-73
2024/03/27 08:55:13;;;;;;;32.08;30.55;;;11.20;99.90;;;;;;5053445;28;20025;-73
2024/03/27 08:57:40;;;;;;;33.72;32.13;;;11.40;99.90;;;;;;5034990;28;20382;-73
2024/03/27 09:00:09;;;;;;;48.08;45.70;;;11.40;99.90;;;;;;5033925;28;20025;-72
2024/03/27 09:02:36;;;;;;;57.53;54.83;;;11.30;99.90;;;;;;5013695;28;20049;-73
2024/03/27 09:05:03;;;;;;;54.22;51.65;;;11.30;99.90;;;;;;5030116;28;20038;-73
2024/03/27 09:07:29;;;;;;;42.22;40.20;;;11.30;99.90;;;;;;5052285;28;20025;-73
2024/03/27 09:09:55;;;;;;;42.88;40.78;;;11.30;99.90;;;;;;5054687;28;20032;-73
2024/03/27 09:12:21;;;;;;;39.15;37.30;;;11.20;99.90;;;;;;5054035;28;20029;-72
2024/03/27 09:14:48;;;;;;;30.60;29.15;;;11.20;99.90;;;;;;5054230;28;20021;-72
2024/03/27 09:17:14;;;;;;;32.58;31.05;;;11.40;99.90;;;;;;5053636;28;20049;-72
2024/03/27 09:19:40;;;;;;;29.45;28.05;;;11.70;99.90;;;;;;5054641;28;20036;-73
2024/03/27 09:22:06;;;;;;;43.35;41.28;;;11.80;99.90;;;;;;5053620;28;20053;-73
2024/03/27 09:24:32;;;;;;;44.83;42.65;;;12.10;99.90;;;;;;5054293;28;20029;-72
2024/03/27 09:27:01;;;;;;;34.78;33.15;;;12.30;99.90;;;;;;5053600;28;20405;-73
2024/03/27 09:29:27;;;;;;;28.48;27.08;;;12.40;99.90;;;;;;5054037;28;20060;-72
2024/03/27 09:31:54;;;;;;;47.97;45.72;;;12.50;99.90;;;;;;5053374;28;20048;-72
2024/03/27 09:34:20;;;;;;;30.55;29.13;;;12.40;99.90;;;;;;5053331;28;20044;-72
2024/03/27 09:36:46;;;;;;;28.17;26.88;;;12.40;99.90;;;;;;5053746;28;20033;-73
2024/03/27 09:39:12;;;;;;;29.45;28.08;;;12.40;99.90;;;;;;5054270;28;20040;-71
2024/03/27 09:41:38;;;;;;;32.13;30.60;;;12.30;99.90;;;;;;5053664;28;20386;-72
2024/03/27 09:44:06;;;;;;;32.90;31.35;;;12.20;99.90;;;;;;5052175;28;20033;-73
2024/03/27 09:46:35;;;;;;;43.83;41.65;;;12.10;99.90;;;;;;5053087;28;20053;-73
2024/03/27 09:49:02;;;;;;;48.83;46.53;;;12.10;99.90;;;;;;5052473;28;20401;-73
2024/03/27 09:51:28;;;;;;;50.58;47.97;;;12.20;99.90;;;;;;5051810;28;20044;-73
2024/03/27 09:53:54;;;;;;;35.38;32.88;;;12.20;99.90;;;;;;5053700;28;20040;-72
2024/03/27 09:56:20;;;;;;;30.10;28.70;;;12.20;99.90;;;;;;5041744;28;20038;-73
2024/03/27 09:58:46;;;;;;;115.05;109.47;;;12.20;99.90;;;;;;5032371;28;20032;-73
2024/03/27 10:01:12;;;;;;;98.22;93.47;;;12.20;99.90;;;;;;5040082;28;20037;-72
2024/03/27 10:03:39;;;;;;;62.90;59.92;;;12.20;99.90;;;;;;5053534;28;20461;-73
2024/03/27 10:06:05;;;;;;;145.05;138.02;;;12.20;99.90;;;;;;5051756;28;20041;-73
2024/03/27 10:08:31;;;;;;;148.63;141.40;;;12.10;99.90;;;;;;5053849;28;20466;-73
2024/03/27 10:10:57;;;;;;;115.65;110.05;;;12.00;99.90;;;;;;5053059;28;20036;-73
2024/03/27 10:13:24;;;;;;;53.28;50.75;;;11.90;99.90;;;;;;5053125;28;20029;-73
2024/03/27 10:15:51;;;;;;;41.67;39.67;;;11.90;99.90;;;;;;5051245;28;20036;-73
2024/03/27 10:18:17;;;;;;;36.10;34.40;;;11.90;99.90;;;;;;5053329;28;20044;-73
2024/03/27 10:20:43;;;;;;;37.72;35.92;;;11.80;99.90;;;;;;5052877;28;20029;-73
2024/03/27 10:23:09;;;;;;;38.75;36.88;;;11.80;99.90;;;;;;5053252;28;20059;-73
2024/03/27 10:25:40;;;;;;;49.33;46.97;;;11.80;99.90;;;;;;5052606;28;20033;-73
2024/03/27 10:28:07;;;;;;;63.78;60.67;;;11.70;99.90;;;;;;5052802;28;20033;-73
2024/03/27 10:30:34;;;;;;;81.70;77.75;;;11.60;99.90;;;;;;5051486;28;20033;-73
2024/03/27 10:33:00;;;;;;;117.72;112.00;;;11.40;99.90;;;;;;5053134;28;20033;-73
2024/03/27 10:35:30;;;;;;;103.85;98.47;;;11.40;99.90;;;;;;5052384;28;20036;-73
2024/03/27 10:37:56;;;;;;;68.60;65.20;;;11.50;99.90;;;;;;5067753;28;20041;-73
2024/03/27 10:40:22;;;;;;;69.25;65.95;;;11.50;99.90;;;;;;5051245;28;20025;-73
2024/03/27 10:42:57;;;;;;;48.40;46.10;;;11.50;99.90;;;;;;5052568;28;20028;-73
2024/03/27 10:45:23;;;;;;;78.57;74.82;;;11.40;99.90;;;;;;5050683;28;20051;-73
2024/03/27 10:47:49;;;;;;;170.27;161.98;;;11.40;99.90;;;;;;5051646;28;20021;-73
2024/03/27 10:50:15;;;;;;;120.82;115.00;;;11.30;99.90;;;;;;5050945;28;20021;-73
2024/03/27 10:52:41;;;;;;;100.63;95.82;;;11.40;99.90;;;;;;5051628;28;20033;-73
2024/03/27 10:55:08;;;;;;;85.05;81.00;;;11.50;99.90;;;;;;5050752;28;20069;-73
2024/03/27 10:57:34;;;;;;;123.20;117.22;;;11.50;99.90;;;;;;5031989;28;20535;-73
2024/03/27 11:00:01;;;;;;;61.25;58.35;;;11.50;99.90;;;;;;5031508;28;20033;-73
2024/03/27 11:02:27;;;;;;;46.55;44.30;;;11.60;99.90;;;;;;5049238;28;20036;-72
2024/03/27 11:04:58;;;;;;;41.08;39.13;;;11.50;99.90;;;;;;5050969;28;20037;-73
2024/03/27 11:07:25;;;;;;;43.30;41.25;;;11.40;99.90;;;;;;5052068;28;20045;-72
2024/03/27 11:09:52;;;;;;;33.72;32.15;;;11.30;99.90;;;;;;5052570;28;20032;-73
2024/03/27 11:12:19;;;;;;;33.85;32.28;;;11.20;99.90;;;;;;5051440;28;20036;-73
2024/03/27 11:14:48;;;;;;;36.10;34.42;;;11.20;99.90;;;;;;5051770;28;20033;-73
2024/03/27 11:17:15;;;;;;;52.85;50.33;;;11.20;99.90;;;;;;5051469;28;20040;-73
2024/03/27 11:19:41;;;;;;;111.40;105.93;;;11.20;99.90;;;;;;5052171;28;20035;-73
2024/03/27 11:22:08;;;;;;;103.55;98.47;;;11.20;99.90;;;;;;5050156;28;20406;-73
2024/03/27 11:24:34;;;;;;;125.43;119.30;;;11.20;99.90;;;;;;5052210;28;20405;-68
2024/03/27 11:27:01;;;;;;;68.50;65.20;;;11.10;99.90;;;;;;5051696;28;20044;-73
2024/03/27 11:29:27;;;;;;;43.33;41.25;;;11.10;99.90;;;;;;5052144;28;20036;-72
2024/03/27 11:31:53;;;;;;;40.03;38.13;;;11.10;99.90;;;;;;5051104;28;20044;-71
2024/03/27 11:34:20;;;;;;;55.55;52.90;;;11.00;99.90;;;;;;5051915;28;20369;-73
2024/03/27 11:36:46;;;;;;;40.40;38.50;;;11.10;99.90;;;;;;5051360;28;20051;-73
2024/03/27 11:39:14;;;;;;;44.20;42.05;;;11.00;99.90;;;;;;5050768;28;20496;-73
2024/03/27 11:41:40;;;;;;;55.10;52.42;;;10.90;99.90;;;;;;5051469;28;20457;-73
2024/03/27 11:44:06;;;;;;;87.28;83.10;;;11.00;99.90;;;;;;5051873;28;20068;-72
2024/03/27 11:46:34;;;;;;;45.95;43.72;;;11.00;99.90;;;;;;5051060;28;20041;-72
2024/03/27 11:49:02;;;;;;;45.22;43.10;;;11.10;99.90;;;;;;5051956;28;20033;-73
2024/03/27 11:51:28;;;;;;;37.28;35.53;;;11.20;99.90;;;;;;5051437;28;20032;-73
2024/03/27 11:53:55;;;;;;;44.60;42.50;;;11.30;99.90;;;;;;5051744;28;20029;-72
2024/03/27 11:56:28;;;;;;;47.42;45.20;;;11.40;99.90;;;;;;5039688;28;20048;-73
2024/03/27 11:58:54;;;;;;;39.20;37.38;;;11.70;99.90;;;;;;5032082;28;20030;-73
2024/03/27 12:01:21;;;;;;;37.95;36.10;;;11.90;99.90;;;;;;5040357;28;20509;-72
2024/03/27 12:03:48;;;;;;;47.95;45.67;;;12.10;99.90;;;;;;5051722;28;20032;-73
2024/03/27 12:06:14;;;;;;;46.28;44.08;;;12.20;99.90;;;;;;5050014;28;20252;-72
2024/03/27 12:08:41;;;;;;;49.03;46.60;;;12.30;99.90;;;;;;5052530;28;20665;-73
2024/03/27 12:11:08;;;;;;;52.38;49.80;;;12.40;99.90;;;;;;5055370;28;20039;-73
2024/03/27 12:13:37;;;;;;;45.53;43.35;;;12.50;99.90;;;;;;5055556;28;20037;-73
2024/03/27 12:16:07;;;;;;;56.00;53.22;;;12.60;99.90;;;;;;5054645;28;20481;-72
2024/03/27 12:18:34;;;;;;;48.33;46.00;;;12.60;99.90;;;;;;5055757;28;20021;-72
2024/03/27 12:21:00;;;;;;;142.73;135.77;;;12.70;99.90;;;;;;5053654;28;20040;-72
2024/03/27 12:23:26;;;;;;;252.68;239.68;;;12.70;99.90;;;;;;5055160;28;20029;-72
2024/03/27 12:25:55;;;;;;;118.75;112.97;;;12.70;99.90;;;;;;5053784;28;20037;-73
2024/03/27 12:28:21;;;;;;;144.30;137.25;;;12.80;99.90;;;;;;5055301;28;20036;-73